CXA8854 ZSNJ-ZUCK
Flight info
| Callsign | CXA8854 |
|---|---|
| Flight time | 1h 48m |
| Altitude | 30100 |
| Route | ESBAG R343 MADUK W51 LEGIV W164 ADGOL W50 XSH W80 IRPOG |
| Aircraft | A321/M-SDE3FGHIRWY/LB1 |
Departure
| Time | 2026-05-05 04:02 |
|---|---|
| Airport | Nanjing Lukou International Airport (ZSNJ) |
Arrival
| Time | 2026-05-05 05:50 |
|---|---|
| Airport | Chongqing Jiangbei International Airport (ZUCK) |
| Time | Latitude | Longitude | Altitude | Speed | Heading |
|---|---|---|---|---|---|
| 2026-05-05 03:45 | 31.73747 | 118.86305 | 59 ft | 0 kts | 178° |
| 2026-05-05 03:50 | 31.73748 | 118.86305 | 58 ft | 0 kts | 178° |
| 2026-05-05 03:53 | 31.73771 | 118.86304 | 50 ft | 4 kts | 178° |
| 2026-05-05 03:54 | 31.73798 | 118.86303 | 52 ft | 4 kts | 178° |
| 2026-05-05 03:54 | 31.73821 | 118.86301 | 54 ft | 4 kts | 160° |
| 2026-05-05 03:54 | 31.73838 | 118.86285 | 52 ft | 4 kts | 104° |
| 2026-05-05 03:54 | 31.73841 | 118.86260 | 53 ft | 1 kts | 88° |
| 2026-05-05 03:55 | 31.73840 | 118.86255 | 53 ft | 0 kts | 88° |
| 2026-05-05 03:56 | 31.73841 | 118.86260 | 53 ft | 2 kts | 88° |
| 2026-05-05 03:56 | 31.73842 | 118.86302 | 51 ft | 7 kts | 88° |
| 2026-05-05 03:57 | 31.73844 | 118.86366 | 54 ft | 9 kts | 88° |
| 2026-05-05 03:57 | 31.73872 | 118.86433 | 51 ft | 10 kts | 24° |
| 2026-05-05 03:57 | 31.73935 | 118.86409 | 56 ft | 10 kts | 326° |
| 2026-05-05 03:57 | 31.74004 | 118.86356 | 52 ft | 15 kts | 329° |
| 2026-05-05 03:58 | 31.74097 | 118.86366 | 55 ft | 15 kts | 51° |
| 2026-05-05 03:58 | 31.74151 | 118.86468 | 52 ft | 14 kts | 58° |
| 2026-05-05 03:58 | 31.74207 | 118.86571 | 51 ft | 18 kts | 57° |
| 2026-05-05 03:58 | 31.74290 | 118.86722 | 52 ft | 26 kts | 57° |
| 2026-05-05 03:59 | 31.74386 | 118.86907 | 53 ft | 26 kts | 58° |
| 2026-05-05 03:59 | 31.74481 | 118.87083 | 56 ft | 25 kts | 58° |
| 2026-05-05 03:59 | 31.74572 | 118.87253 | 54 ft | 24 kts | 58° |
| 2026-05-05 03:59 | 31.74660 | 118.87417 | 54 ft | 23 kts | 58° |
| 2026-05-05 04:00 | 31.74744 | 118.87573 | 54 ft | 22 kts | 58° |
| 2026-05-05 04:00 | 31.74823 | 118.87722 | 56 ft | 21 kts | 58° |
| 2026-05-05 04:00 | 31.74901 | 118.87865 | 52 ft | 19 kts | 54° |
| 2026-05-05 04:00 | 31.74986 | 118.87865 | 54 ft | 13 kts | 328° |
| 2026-05-05 04:01 | 31.75052 | 118.87810 | 54 ft | 11 kts | 311° |
| 2026-05-05 04:01 | 31.75027 | 118.87706 | 56 ft | 19 kts | 238° |
| 2026-05-05 04:01 | 31.74867 | 118.87407 | 52 ft | 76 kts | 238° |
| 2026-05-05 04:01 | 31.74477 | 118.86679 | 57 ft | 131 kts | 238° |
| 2026-05-05 04:02 | 31.73913 | 118.85628 | 85 ft | 169 kts | 237° |
| 2026-05-05 04:02 | 31.73304 | 118.84395 | 456 ft | 179 kts | 244° |
| 2026-05-05 04:02 | 31.72851 | 118.83023 | 1033 ft | 181 kts | 251° |
| 2026-05-05 04:02 | 31.72481 | 118.81611 | 1591 ft | 180 kts | 250° |
| 2026-05-05 04:03 | 31.72099 | 118.80170 | 1934 ft | 195 kts | 249° |
| 2026-05-05 04:03 | 31.71667 | 118.78566 | 2214 ft | 219 kts | 250° |
| 2026-05-05 04:03 | 31.71183 | 118.76756 | 2629 ft | 246 kts | 250° |
| 2026-05-05 04:03 | 31.70657 | 118.74782 | 3276 ft | 257 kts | 250° |
| 2026-05-05 04:04 | 31.70118 | 118.72766 | 4120 ft | 260 kts | 250° |
| 2026-05-05 04:04 | 31.69567 | 118.70710 | 4948 ft | 267 kts | 249° |
| 2026-05-05 04:04 | 31.69007 | 118.68616 | 5806 ft | 271 kts | 249° |
| 2026-05-05 04:04 | 31.68438 | 118.66485 | 6568 ft | 276 kts | 249° |
| 2026-05-05 04:05 | 31.67861 | 118.64326 | 7302 ft | 279 kts | 250° |
| 2026-05-05 04:05 | 31.67297 | 118.62132 | 8052 ft | 283 kts | 256° |
| 2026-05-05 04:05 | 31.67214 | 118.59812 | 8810 ft | 287 kts | 270° |
| 2026-05-05 04:05 | 31.67204 | 118.57465 | 9649 ft | 288 kts | 268° |
| 2026-05-05 04:06 | 31.67197 | 118.55127 | 10350 ft | 294 kts | 269° |
| 2026-05-05 04:06 | 31.67192 | 118.52634 | 10527 ft | 316 kts | 269° |
| 2026-05-05 04:06 | 31.67176 | 118.49958 | 10658 ft | 339 kts | 269° |
| 2026-05-05 04:06 | 31.67149 | 118.47103 | 10776 ft | 360 kts | 269° |
| 2026-05-05 04:07 | 31.67111 | 118.44079 | 10897 ft | 380 kts | 269° |
| 2026-05-05 04:07 | 31.67066 | 118.40938 | 11262 ft | 389 kts | 269° |
| 2026-05-05 04:07 | 31.67015 | 118.37744 | 11821 ft | 393 kts | 269° |
| 2026-05-05 04:07 | 31.66961 | 118.34530 | 12417 ft | 395 kts | 269° |
| 2026-05-05 04:08 | 31.66906 | 118.31296 | 13013 ft | 397 kts | 269° |
| 2026-05-05 04:08 | 31.66852 | 118.28046 | 13614 ft | 399 kts | 269° |
| 2026-05-05 04:08 | 31.66815 | 118.25843 | 14010 ft | 400 kts | 269° |
| 2026-05-05 04:08 | 31.66741 | 118.21498 | 14674 ft | 403 kts | 269° |
| 2026-05-05 04:09 | 31.66702 | 118.19267 | 15008 ft | 405 kts | 269° |
| 2026-05-05 04:09 | 31.66535 | 118.16001 | 15471 ft | 408 kts | 264° |
| 2026-05-05 04:09 | 31.66217 | 118.12674 | 15955 ft | 411 kts | 264° |
| 2026-05-05 04:09 | 31.65894 | 118.09324 | 16405 ft | 415 kts | 264° |
| 2026-05-05 04:10 | 31.65570 | 118.05949 | 16882 ft | 418 kts | 264° |
| 2026-05-05 04:10 | 31.65243 | 118.02544 | 17359 ft | 421 kts | 264° |
| 2026-05-05 04:10 | 31.64914 | 117.99113 | 17836 ft | 425 kts | 264° |
| 2026-05-05 04:10 | 31.64582 | 117.95659 | 18303 ft | 428 kts | 264° |
| 2026-05-05 04:11 | 31.64245 | 117.92176 | 18720 ft | 431 kts | 264° |
| 2026-05-05 04:11 | 31.63904 | 117.88677 | 19135 ft | 433 kts | 264° |
| 2026-05-05 04:11 | 31.63557 | 117.85153 | 19536 ft | 436 kts | 264° |
| 2026-05-05 04:11 | 31.63206 | 117.81606 | 19936 ft | 438 kts | 264° |
| 2026-05-05 04:12 | 31.62854 | 117.78049 | 20346 ft | 441 kts | 264° |
| 2026-05-05 04:12 | 31.62500 | 117.74469 | 20735 ft | 443 kts | 264° |
| 2026-05-05 04:12 | 31.62145 | 117.70869 | 21125 ft | 445 kts | 264° |
| 2026-05-05 04:12 | 31.61789 | 117.67257 | 21490 ft | 447 kts | 264° |
| 2026-05-05 04:13 | 31.61429 | 117.63620 | 21850 ft | 450 kts | 264° |
| 2026-05-05 04:13 | 31.61072 | 117.59962 | 22208 ft | 452 kts | 264° |
| 2026-05-05 04:13 | 31.60625 | 117.56306 | 22577 ft | 455 kts | 259° |
| 2026-05-05 04:13 | 31.59981 | 117.52668 | 22930 ft | 457 kts | 259° |
| 2026-05-05 04:14 | 31.59329 | 117.49004 | 23301 ft | 459 kts | 259° |
| 2026-05-05 04:14 | 31.58675 | 117.45325 | 23657 ft | 462 kts | 259° |
| 2026-05-05 04:14 | 31.58018 | 117.41632 | 23962 ft | 463 kts | 259° |
| 2026-05-05 04:14 | 31.57355 | 117.37926 | 24259 ft | 465 kts | 259° |
| 2026-05-05 04:15 | 31.56688 | 117.34214 | 24611 ft | 464 kts | 259° |
| 2026-05-05 04:15 | 31.56023 | 117.30523 | 25049 ft | 461 kts | 259° |
| 2026-05-05 04:15 | 31.55364 | 117.26855 | 25486 ft | 459 kts | 259° |
| 2026-05-05 04:15 | 31.54717 | 117.23201 | 25914 ft | 457 kts | 259° |
| 2026-05-05 04:16 | 31.54077 | 117.19565 | 26342 ft | 455 kts | 259° |
| 2026-05-05 04:16 | 31.53442 | 117.15944 | 26789 ft | 452 kts | 259° |
| 2026-05-05 04:16 | 31.52809 | 117.12347 | 27231 ft | 450 kts | 259° |
| 2026-05-05 04:16 | 31.52174 | 117.08764 | 27671 ft | 448 kts | 259° |
| 2026-05-05 04:17 | 31.51539 | 117.05203 | 28105 ft | 445 kts | 259° |
| 2026-05-05 04:17 | 31.50907 | 117.01663 | 28537 ft | 443 kts | 259° |
| 2026-05-05 04:17 | 31.50277 | 116.98135 | 28971 ft | 441 kts | 259° |
| 2026-05-05 04:17 | 31.49649 | 116.94626 | 29396 ft | 439 kts | 259° |
| 2026-05-05 04:18 | 31.49022 | 116.91135 | 29821 ft | 437 kts | 259° |
| 2026-05-05 04:18 | 31.48342 | 116.87682 | 30203 ft | 435 kts | 255° |
| 2026-05-05 04:18 | 31.47257 | 116.84370 | 30532 ft | 436 kts | 246° |
| 2026-05-05 04:18 | 31.45731 | 116.81306 | 30853 ft | 438 kts | 237° |
| 2026-05-05 04:19 | 31.43886 | 116.78457 | 31175 ft | 438 kts | 235° |
| 2026-05-05 04:19 | 31.42038 | 116.75640 | 31506 ft | 436 kts | 236° |
| 2026-05-05 04:19 | 31.40191 | 116.72821 | 31858 ft | 435 kts | 236° |
| 2026-05-05 04:19 | 31.38354 | 116.70015 | 32061 ft | 434 kts | 236° |
| 2026-05-05 04:20 | 31.34689 | 116.64414 | 32095 ft | 432 kts | 236° |
| 2026-05-05 04:20 | 31.31034 | 116.58829 | 32098 ft | 432 kts | 236° |
| 2026-05-05 04:21 | 31.27386 | 116.53256 | 32099 ft | 431 kts | 236° |
| 2026-05-05 04:21 | 31.23734 | 116.47703 | 32099 ft | 431 kts | 236° |
| 2026-05-05 04:22 | 31.20076 | 116.42155 | 32104 ft | 430 kts | 236° |
| 2026-05-05 04:22 | 31.16451 | 116.36656 | 32108 ft | 430 kts | 236° |
| 2026-05-05 04:23 | 31.12797 | 116.31128 | 32111 ft | 429 kts | 236° |
| 2026-05-05 04:23 | 31.09148 | 116.25619 | 32110 ft | 429 kts | 236° |
| 2026-05-05 04:24 | 31.05510 | 116.20110 | 32111 ft | 428 kts | 236° |
| 2026-05-05 04:25 | 31.00041 | 116.11854 | 32116 ft | 428 kts | 236° |
| 2026-05-05 04:25 | 30.96401 | 116.06367 | 32122 ft | 428 kts | 236° |
| 2026-05-05 04:26 | 30.92759 | 116.00891 | 32119 ft | 427 kts | 236° |
| 2026-05-05 04:26 | 30.89121 | 115.95433 | 32122 ft | 426 kts | 236° |
| 2026-05-05 04:27 | 30.85484 | 115.89980 | 32117 ft | 426 kts | 236° |
| 2026-05-05 04:27 | 30.81871 | 115.84534 | 32116 ft | 425 kts | 236° |
| 2026-05-05 04:28 | 30.78276 | 115.79075 | 32111 ft | 425 kts | 236° |
| 2026-05-05 04:28 | 30.74690 | 115.73625 | 32108 ft | 424 kts | 236° |
| 2026-05-05 04:29 | 30.71099 | 115.68179 | 32110 ft | 423 kts | 236° |
| 2026-05-05 04:29 | 30.67509 | 115.62763 | 32097 ft | 423 kts | 236° |
| 2026-05-05 04:30 | 30.63918 | 115.57350 | 32099 ft | 423 kts | 236° |
| 2026-05-05 04:30 | 30.60332 | 115.51945 | 32100 ft | 422 kts | 236° |
| 2026-05-05 04:31 | 30.56754 | 115.46550 | 32092 ft | 422 kts | 236° |
| 2026-05-05 04:31 | 30.53169 | 115.41162 | 32100 ft | 422 kts | 236° |
| 2026-05-05 04:32 | 30.49579 | 115.35782 | 32099 ft | 421 kts | 236° |
| 2026-05-05 04:32 | 30.46136 | 115.30311 | 32096 ft | 417 kts | 244° |
| 2026-05-05 04:33 | 30.44316 | 115.24041 | 32092 ft | 411 kts | 263° |
| 2026-05-05 04:33 | 30.44469 | 115.17454 | 32094 ft | 410 kts | 276° |
| 2026-05-05 04:34 | 30.45156 | 115.10892 | 32092 ft | 411 kts | 276° |
| 2026-05-05 04:34 | 30.45832 | 115.04322 | 32095 ft | 410 kts | 276° |
| 2026-05-05 04:35 | 30.46504 | 114.97715 | 32102 ft | 419 kts | 278° |
| 2026-05-05 04:35 | 30.47203 | 114.90892 | 32096 ft | 432 kts | 278° |
| 2026-05-05 04:36 | 30.47919 | 114.83939 | 32091 ft | 435 kts | 278° |
| 2026-05-05 04:36 | 30.48626 | 114.76969 | 32088 ft | 436 kts | 278° |
| 2026-05-05 04:37 | 30.49328 | 114.69986 | 32082 ft | 436 kts | 278° |
| 2026-05-05 04:37 | 30.50031 | 114.63008 | 32074 ft | 436 kts | 278° |
| 2026-05-05 04:38 | 30.50730 | 114.56019 | 32064 ft | 436 kts | 278° |
| 2026-05-05 04:38 | 30.51424 | 114.49028 | 32058 ft | 436 kts | 278° |
| 2026-05-05 04:39 | 30.52114 | 114.42035 | 32057 ft | 437 kts | 278° |
| 2026-05-05 04:39 | 30.52796 | 114.35037 | 32049 ft | 437 kts | 278° |
| 2026-05-05 04:40 | 30.53473 | 114.28032 | 32055 ft | 437 kts | 278° |
| 2026-05-05 04:40 | 30.54152 | 114.21030 | 32048 ft | 437 kts | 278° |
| 2026-05-05 04:41 | 30.54824 | 114.14021 | 32044 ft | 437 kts | 278° |
| 2026-05-05 04:41 | 30.55485 | 114.07010 | 32042 ft | 437 kts | 278° |
| 2026-05-05 04:42 | 30.56160 | 113.99998 | 32035 ft | 437 kts | 278° |
| 2026-05-05 04:42 | 30.56830 | 113.92976 | 32045 ft | 438 kts | 278° |
| 2026-05-05 04:43 | 30.57479 | 113.85950 | 32038 ft | 438 kts | 278° |
| 2026-05-05 04:43 | 30.57562 | 113.78872 | 32038 ft | 441 kts | 270° |
| 2026-05-05 04:44 | 30.57297 | 113.71761 | 32023 ft | 441 kts | 270° |
| 2026-05-05 04:44 | 30.57038 | 113.64643 | 32024 ft | 441 kts | 270° |
| 2026-05-05 04:45 | 30.56769 | 113.57522 | 32031 ft | 442 kts | 270° |
| 2026-05-05 04:45 | 30.56496 | 113.50399 | 32022 ft | 442 kts | 270° |
| 2026-05-05 04:46 | 30.56219 | 113.43274 | 32027 ft | 442 kts | 270° |
| 2026-05-05 04:46 | 30.55932 | 113.36148 | 32025 ft | 442 kts | 270° |
| 2026-05-05 04:47 | 30.55648 | 113.29014 | 32023 ft | 443 kts | 270° |
| 2026-05-05 04:47 | 30.55361 | 113.21874 | 32022 ft | 443 kts | 270° |
| 2026-05-05 04:48 | 30.55069 | 113.14739 | 32020 ft | 443 kts | 270° |
| 2026-05-05 04:48 | 30.54773 | 113.07588 | 32017 ft | 443 kts | 270° |
| 2026-05-05 04:49 | 30.54525 | 113.01650 | 32020 ft | 444 kts | 270° |
| 2026-05-05 04:49 | 30.54161 | 112.93300 | 32017 ft | 444 kts | 270° |
| 2026-05-05 04:50 | 30.53853 | 112.86192 | 32014 ft | 444 kts | 271° |
| 2026-05-05 04:50 | 30.53603 | 112.80201 | 32014 ft | 444 kts | 271° |
| 2026-05-05 04:51 | 30.53294 | 112.73051 | 32010 ft | 444 kts | 270° |
| 2026-05-05 04:51 | 30.52969 | 112.65888 | 32008 ft | 444 kts | 270° |
| 2026-05-05 04:52 | 30.52647 | 112.58723 | 32008 ft | 445 kts | 271° |
| 2026-05-05 04:52 | 30.52327 | 112.51559 | 32009 ft | 445 kts | 271° |
| 2026-05-05 04:53 | 30.51993 | 112.44401 | 32006 ft | 445 kts | 271° |
| 2026-05-05 04:53 | 30.51657 | 112.37235 | 32005 ft | 445 kts | 271° |
| 2026-05-05 04:54 | 30.51317 | 112.30066 | 32002 ft | 445 kts | 271° |
| 2026-05-05 04:54 | 30.50972 | 112.22894 | 32000 ft | 445 kts | 271° |
| 2026-05-05 04:55 | 30.50626 | 112.15723 | 32002 ft | 446 kts | 271° |
| 2026-05-05 04:55 | 30.50276 | 112.08544 | 32000 ft | 446 kts | 271° |
| 2026-05-05 04:56 | 30.49922 | 112.01364 | 31995 ft | 446 kts | 271° |
| 2026-05-05 04:56 | 30.49566 | 111.94190 | 31994 ft | 446 kts | 271° |
| 2026-05-05 04:57 | 30.49202 | 111.87007 | 31994 ft | 446 kts | 271° |
| 2026-05-05 04:57 | 30.48829 | 111.79823 | 31996 ft | 446 kts | 271° |
| 2026-05-05 04:58 | 30.48459 | 111.72691 | 31995 ft | 446 kts | 271° |
| 2026-05-05 04:58 | 30.48083 | 111.65504 | 31990 ft | 447 kts | 271° |
| 2026-05-05 04:59 | 30.47694 | 111.58276 | 31991 ft | 447 kts | 271° |
| 2026-05-05 04:59 | 30.47302 | 111.51087 | 31992 ft | 447 kts | 271° |
| 2026-05-05 05:00 | 30.46534 | 111.43908 | 31991 ft | 451 kts | 266° |
| 2026-05-05 05:00 | 30.45960 | 111.39752 | 31989 ft | 451 kts | 266° |
| 2026-05-05 05:02 | 30.45082 | 111.33325 | 31993 ft | 451 kts | 266° |
| 2026-05-05 05:03 | 30.44098 | 111.26203 | 31990 ft | 450 kts | 267° |
| 2026-05-05 05:03 | 30.43104 | 111.19033 | 31996 ft | 450 kts | 267° |
| 2026-05-05 05:04 | 30.42103 | 111.11872 | 32007 ft | 450 kts | 267° |
| 2026-05-05 05:04 | 30.41097 | 111.04707 | 32009 ft | 451 kts | 267° |
| 2026-05-05 05:05 | 30.40083 | 110.97540 | 32012 ft | 450 kts | 267° |
| 2026-05-05 05:05 | 30.39066 | 110.90384 | 32015 ft | 450 kts | 267° |
| 2026-05-05 05:06 | 30.38050 | 110.83229 | 32020 ft | 450 kts | 267° |
| 2026-05-05 05:06 | 30.37036 | 110.76087 | 32027 ft | 450 kts | 267° |
| 2026-05-05 05:07 | 30.36006 | 110.68940 | 32026 ft | 449 kts | 267° |
| 2026-05-05 05:07 | 30.34975 | 110.61807 | 32030 ft | 448 kts | 267° |
| 2026-05-05 05:08 | 30.33959 | 110.54735 | 32036 ft | 448 kts | 268° |
| 2026-05-05 05:08 | 30.32935 | 110.47612 | 32041 ft | 448 kts | 267° |
| 2026-05-05 05:09 | 30.31896 | 110.40518 | 32044 ft | 447 kts | 267° |
| 2026-05-05 05:09 | 30.30858 | 110.33420 | 32038 ft | 447 kts | 268° |
| 2026-05-05 05:10 | 30.29820 | 110.26328 | 32042 ft | 447 kts | 268° |
| 2026-05-05 05:10 | 30.28777 | 110.19242 | 32042 ft | 447 kts | 267° |
| 2026-05-05 05:11 | 30.27726 | 110.12158 | 32038 ft | 447 kts | 268° |
| 2026-05-05 05:11 | 30.26676 | 110.05072 | 32039 ft | 447 kts | 267° |
| 2026-05-05 05:12 | 30.25622 | 109.97999 | 32047 ft | 446 kts | 267° |
| 2026-05-05 05:12 | 30.24564 | 109.90919 | 32037 ft | 446 kts | 267° |
| 2026-05-05 05:13 | 30.23497 | 109.83855 | 32037 ft | 446 kts | 267° |
| 2026-05-05 05:13 | 30.22428 | 109.76798 | 32032 ft | 445 kts | 267° |
| 2026-05-05 05:14 | 30.21367 | 109.69743 | 32032 ft | 445 kts | 267° |
| 2026-05-05 05:14 | 30.20295 | 109.62694 | 32031 ft | 445 kts | 266° |
| 2026-05-05 05:15 | 30.18724 | 109.55723 | 32031 ft | 451 kts | 260° |
| 2026-05-05 05:15 | 30.16882 | 109.48794 | 32031 ft | 451 kts | 259° |
| 2026-05-05 05:16 | 30.15031 | 109.41866 | 32032 ft | 451 kts | 259° |
| 2026-05-05 05:16 | 30.13176 | 109.34950 | 32037 ft | 449 kts | 259° |
| 2026-05-05 05:17 | 30.11345 | 109.28053 | 32040 ft | 449 kts | 259° |
| 2026-05-05 05:17 | 30.09513 | 109.21163 | 32033 ft | 449 kts | 259° |
| 2026-05-05 05:18 | 30.07682 | 109.14319 | 32045 ft | 449 kts | 259° |
| 2026-05-05 05:18 | 30.05826 | 109.07450 | 32045 ft | 448 kts | 259° |
| 2026-05-05 05:19 | 30.03951 | 109.00551 | 32046 ft | 447 kts | 259° |
| 2026-05-05 05:19 | 30.02101 | 108.93708 | 32044 ft | 445 kts | 259° |
| 2026-05-05 05:20 | 30.00317 | 108.86914 | 32041 ft | 445 kts | 260° |
| 2026-05-05 05:20 | 29.98534 | 108.80079 | 32046 ft | 445 kts | 259° |
| 2026-05-05 05:21 | 29.96740 | 108.73255 | 32042 ft | 445 kts | 259° |
| 2026-05-05 05:21 | 29.94941 | 108.66445 | 32044 ft | 443 kts | 259° |
| 2026-05-05 05:22 | 29.93141 | 108.59648 | 32047 ft | 443 kts | 259° |
| 2026-05-05 05:22 | 29.91335 | 108.52858 | 32044 ft | 443 kts | 259° |
| 2026-05-05 05:23 | 29.89527 | 108.46083 | 32043 ft | 442 kts | 259° |
| 2026-05-05 05:23 | 29.87717 | 108.39317 | 32045 ft | 442 kts | 259° |
| 2026-05-05 05:24 | 29.85912 | 108.32560 | 32041 ft | 441 kts | 259° |
| 2026-05-05 05:24 | 29.84109 | 108.25810 | 32034 ft | 440 kts | 259° |
| 2026-05-05 05:25 | 29.82300 | 108.19074 | 32030 ft | 440 kts | 259° |
| 2026-05-05 05:25 | 29.80485 | 108.12350 | 32030 ft | 440 kts | 259° |
| 2026-05-05 05:26 | 29.78672 | 108.05636 | 31849 ft | 441 kts | 259° |
| 2026-05-05 05:26 | 29.77763 | 108.02267 | 31319 ft | 440 kts | 258° |
| 2026-05-05 05:26 | 29.76853 | 107.98900 | 30834 ft | 441 kts | 258° |
| 2026-05-05 05:26 | 29.75944 | 107.95530 | 30361 ft | 441 kts | 259° |
| 2026-05-05 05:27 | 29.75296 | 107.92109 | 29877 ft | 436 kts | 267° |
| 2026-05-05 05:27 | 29.75046 | 107.88641 | 29330 ft | 435 kts | 270° |
| 2026-05-05 05:27 | 29.74635 | 107.81652 | 28266 ft | 441 kts | 270° |
| 2026-05-05 05:28 | 29.74423 | 107.78120 | 27751 ft | 444 kts | 270° |
| 2026-05-05 05:28 | 29.74207 | 107.74558 | 27236 ft | 447 kts | 270° |
| 2026-05-05 05:28 | 29.73987 | 107.70984 | 26736 ft | 450 kts | 270° |
| 2026-05-05 05:28 | 29.73762 | 107.67376 | 26240 ft | 453 kts | 270° |
| 2026-05-05 05:29 | 29.73537 | 107.63748 | 25762 ft | 456 kts | 270° |
| 2026-05-05 05:29 | 29.73310 | 107.60100 | 25287 ft | 459 kts | 270° |
| 2026-05-05 05:29 | 29.73082 | 107.56426 | 24821 ft | 461 kts | 269° |
| 2026-05-05 05:29 | 29.72851 | 107.52736 | 24365 ft | 464 kts | 269° |
| 2026-05-05 05:30 | 29.72614 | 107.49026 | 23913 ft | 466 kts | 269° |
| 2026-05-05 05:30 | 29.72377 | 107.45321 | 23468 ft | 459 kts | 269° |
| 2026-05-05 05:30 | 29.72144 | 107.41700 | 22938 ft | 449 kts | 269° |
| 2026-05-05 05:30 | 29.71914 | 107.38153 | 22421 ft | 439 kts | 269° |
| 2026-05-05 05:31 | 29.71688 | 107.34688 | 21911 ft | 431 kts | 269° |
| 2026-05-05 05:31 | 29.71468 | 107.31289 | 21414 ft | 423 kts | 269° |
| 2026-05-05 05:31 | 29.71251 | 107.27938 | 20919 ft | 416 kts | 269° |
| 2026-05-05 05:31 | 29.71038 | 107.24655 | 20436 ft | 409 kts | 269° |
| 2026-05-05 05:32 | 29.70828 | 107.21417 | 19958 ft | 402 kts | 269° |
| 2026-05-05 05:32 | 29.70623 | 107.18239 | 19494 ft | 396 kts | 269° |
| 2026-05-05 05:32 | 29.70489 | 107.16159 | 19188 ft | 392 kts | 269° |
| 2026-05-05 05:32 | 29.70289 | 107.13046 | 18731 ft | 387 kts | 269° |
| 2026-05-05 05:33 | 29.70021 | 107.08950 | 18128 ft | 381 kts | 269° |
| 2026-05-05 05:33 | 29.69888 | 107.06945 | 17785 ft | 379 kts | 269° |
| 2026-05-05 05:33 | 29.69688 | 107.03943 | 17273 ft | 376 kts | 268° |
| 2026-05-05 05:33 | 29.69510 | 107.00956 | 16770 ft | 372 kts | 272° |
| 2026-05-05 05:34 | 29.69830 | 106.98084 | 16627 ft | 354 kts | 288° |
| 2026-05-05 05:34 | 29.70801 | 106.95563 | 16487 ft | 339 kts | 304° |
| 2026-05-05 05:34 | 29.72301 | 106.93557 | 16373 ft | 326 kts | 320° |
| 2026-05-05 05:34 | 29.74165 | 106.92165 | 16248 ft | 315 kts | 334° |
| 2026-05-05 05:35 | 29.76119 | 106.91087 | 15992 ft | 309 kts | 334° |
| 2026-05-05 05:35 | 29.78050 | 106.90019 | 15630 ft | 307 kts | 334° |
| 2026-05-05 05:35 | 29.79976 | 106.88952 | 15262 ft | 307 kts | 333° |
| 2026-05-05 05:35 | 29.81895 | 106.87883 | 14885 ft | 307 kts | 333° |
| 2026-05-05 05:36 | 29.83815 | 106.86813 | 14517 ft | 306 kts | 334° |
| 2026-05-05 05:36 | 29.85810 | 106.85953 | 14146 ft | 307 kts | 343° |
| 2026-05-05 05:36 | 29.87896 | 106.85460 | 13790 ft | 307 kts | 352° |
| 2026-05-05 05:36 | 29.90030 | 106.85335 | 13394 ft | 308 kts | 0° |
| 2026-05-05 05:37 | 29.92160 | 106.85589 | 13004 ft | 309 kts | 9° |
| 2026-05-05 05:37 | 29.94242 | 106.86205 | 12644 ft | 309 kts | 15° |
| 2026-05-05 05:37 | 29.96298 | 106.86926 | 12267 ft | 309 kts | 15° |
| 2026-05-05 05:37 | 29.98350 | 106.87642 | 11923 ft | 308 kts | 15° |
| 2026-05-05 05:38 | 30.00398 | 106.88354 | 11593 ft | 307 kts | 15° |
| 2026-05-05 05:38 | 30.02440 | 106.89064 | 11239 ft | 306 kts | 15° |
| 2026-05-05 05:38 | 30.04477 | 106.89773 | 10875 ft | 306 kts | 15° |
| 2026-05-05 05:38 | 30.06509 | 106.90485 | 10539 ft | 306 kts | 15° |
| 2026-05-05 05:39 | 30.08543 | 106.91198 | 10190 ft | 305 kts | 15° |
| 2026-05-05 05:39 | 30.10559 | 106.91903 | 9986 ft | 299 kts | 15° |
| 2026-05-05 05:39 | 30.12559 | 106.92273 | 9865 ft | 285 kts | 350° |
| 2026-05-05 05:39 | 30.14297 | 106.91481 | 9769 ft | 261 kts | 317° |
| 2026-05-05 05:40 | 30.15290 | 106.89862 | 9637 ft | 240 kts | 287° |
| 2026-05-05 05:40 | 30.15771 | 106.88068 | 9481 ft | 229 kts | 284° |
| 2026-05-05 05:40 | 30.16226 | 106.86323 | 9187 ft | 226 kts | 284° |
| 2026-05-05 05:40 | 30.16678 | 106.84593 | 8859 ft | 224 kts | 284° |
| 2026-05-05 05:41 | 30.17125 | 106.82867 | 8510 ft | 224 kts | 281° |
| 2026-05-05 05:41 | 30.17083 | 106.81128 | 8176 ft | 216 kts | 246° |
| 2026-05-05 05:41 | 30.16102 | 106.79891 | 7739 ft | 213 kts | 206° |
| 2026-05-05 05:41 | 30.14702 | 106.79334 | 7239 ft | 214 kts | 197° |
| 2026-05-05 05:42 | 30.13276 | 106.78844 | 6922 ft | 212 kts | 196° |
| 2026-05-05 05:42 | 30.11850 | 106.78361 | 6894 ft | 215 kts | 196° |
| 2026-05-05 05:42 | 30.10412 | 106.77871 | 6894 ft | 216 kts | 196° |
| 2026-05-05 05:42 | 30.08967 | 106.77407 | 6892 ft | 216 kts | 194° |
| 2026-05-05 05:43 | 30.07518 | 106.76962 | 6894 ft | 216 kts | 195° |
| 2026-05-05 05:43 | 30.06079 | 106.76476 | 6892 ft | 215 kts | 196° |
| 2026-05-05 05:43 | 30.04641 | 106.75975 | 6901 ft | 216 kts | 197° |
| 2026-05-05 05:43 | 30.03206 | 106.75472 | 6899 ft | 215 kts | 197° |
| 2026-05-05 05:44 | 30.01820 | 106.74987 | 6849 ft | 200 kts | 197° |
| 2026-05-05 05:44 | 30.00513 | 106.74531 | 6667 ft | 193 kts | 197° |
| 2026-05-05 05:44 | 29.99236 | 106.74084 | 6448 ft | 190 kts | 196° |
| 2026-05-05 05:44 | 29.97967 | 106.73641 | 6218 ft | 191 kts | 195° |
| 2026-05-05 05:45 | 29.96704 | 106.73200 | 5970 ft | 190 kts | 196° |
| 2026-05-05 05:45 | 29.95445 | 106.72760 | 5712 ft | 189 kts | 195° |
| 2026-05-05 05:45 | 29.94186 | 106.72321 | 5484 ft | 190 kts | 195° |
| 2026-05-05 05:45 | 29.92921 | 106.71880 | 5225 ft | 189 kts | 195° |
| 2026-05-05 05:46 | 29.91659 | 106.71439 | 4976 ft | 190 kts | 195° |
| 2026-05-05 05:46 | 29.90409 | 106.71004 | 4733 ft | 187 kts | 196° |
| 2026-05-05 05:46 | 29.89157 | 106.70567 | 4515 ft | 190 kts | 195° |
| 2026-05-05 05:46 | 29.87862 | 106.70116 | 4265 ft | 200 kts | 195° |
| 2026-05-05 05:47 | 29.86521 | 106.69649 | 3966 ft | 198 kts | 195° |
| 2026-05-05 05:47 | 29.85239 | 106.69201 | 3744 ft | 193 kts | 194° |
| 2026-05-05 05:47 | 29.84007 | 106.68773 | 3523 ft | 189 kts | 195° |
| 2026-05-05 05:47 | 29.82798 | 106.68350 | 3273 ft | 171 kts | 195° |
| 2026-05-05 05:48 | 29.81701 | 106.67968 | 3059 ft | 160 kts | 194° |
| 2026-05-05 05:48 | 29.80671 | 106.67610 | 2855 ft | 152 kts | 194° |
| 2026-05-05 05:48 | 29.79678 | 106.67265 | 2650 ft | 148 kts | 194° |
| 2026-05-05 05:48 | 29.78697 | 106.66924 | 2488 ft | 148 kts | 193° |
| 2026-05-05 05:49 | 29.77715 | 106.66582 | 2287 ft | 146 kts | 194° |
| 2026-05-05 05:49 | 29.76748 | 106.66246 | 2084 ft | 146 kts | 194° |
| 2026-05-05 05:49 | 29.75767 | 106.65905 | 1897 ft | 147 kts | 194° |
| 2026-05-05 05:49 | 29.74785 | 106.65565 | 1693 ft | 148 kts | 195° |
| 2026-05-05 05:50 | 29.73794 | 106.65211 | 1458 ft | 149 kts | 195° |
| 2026-05-05 05:50 | 29.72816 | 106.64871 | 1360 ft | 139 kts | 196° |
| 2026-05-05 05:50 | 29.72086 | 106.64623 | 1353 ft | 78 kts | 196° |
| 2026-05-05 05:50 | 29.71729 | 106.64499 | 1357 ft | 29 kts | 197° |
| 2026-05-05 05:51 | 29.71572 | 106.64489 | 1357 ft | 19 kts | 173° |
| 2026-05-05 05:51 | 29.71449 | 106.64517 | 1358 ft | 18 kts | 168° |
| 2026-05-05 05:51 | 29.71377 | 106.64593 | 1360 ft | 15 kts | 91° |
| 2026-05-05 05:51 | 29.71362 | 106.64693 | 1357 ft | 11 kts | 109° |
| 2026-05-05 05:52 | 29.71334 | 106.64777 | 1355 ft | 11 kts | 111° |
| 2026-05-05 05:52 | 29.71314 | 106.64860 | 1357 ft | 9 kts | 113° |
| 2026-05-05 05:52 | 29.71296 | 106.64899 | 1355 ft | 0 kts | 117° |